Thunder radar more information blitzortung!


Radar de pluja more information rain snow radar


Visita la nostra xarxa de llocs de meteo:

Template documentation
and downloads

And another site



No particular awareness of the weather is required.    There are no Weather-warnings

Pagina Historial Weather Underground text

Diari Resum Agost 19, 2017 Unitats:  Imperial    Mètric   Tant
« Previous Dia
SegĂźent Dia »
Diari Setmana Mensual Anual Personalitzada
  Maxima: Minima: Media:
Temperatura: TemperatureC °F 22.3 °F 24.8 °F
Punt de rosada: DewpointC °F 14.7 °F 18.1 °F
Humitat: Humidity % 49 % 67 %
Wind Speed: WindSpeedKMH mph 0.0 mph 6.3 mph
RĂ fegues de vent: WindSpeedGustKMH mph - -
Vent:- - South
Pression baro: PressurehPa in 1014.8 in -
Precipitacions: 0.0 in    
Historical Graphs
 
 
Dades de taula per Agost 19, 2017
Temps Temperatura Punt de rosada Pression baro Vent Wind Speed RĂ fegues de vent Humitat Rainfall Rate (Hourly)
TemperatureC °F DewpointC °F PressurehPa in Calm     Humidity % HourlyPrecipMM in
00:04 26.3 °F 14.7 °F 1014.8 in ENE 9.3 mph 9.3 mph 49 % 0.0 in
00:09 26.3 °F 15.1 °F 1014.8 in NNE 11.1 mph 11.1 mph 50 % 0.0 in
00:14 26.2 °F 15.3 °F 1014.8 in East 9.3 mph 9.3 mph 51 % 0.0 in
00:19 25.9 °F 16.2 °F 1014.8 in ENE 9.3 mph 9.3 mph 55 % 0.0 in
00:24 25.7 °F 16.8 °F 1014.8 in NNE 11.1 mph 11.1 mph 58 % 0.0 in
00:29 25.5 °F 17.2 °F 1015.8 in ESE 9.3 mph 9.3 mph 60 % 0.0 in
00:34 25.4 °F 17.6 °F 1015.8 in NNE 7.4 mph 7.4 mph 62 % 0.0 in
00:39 25.3 °F 18.2 °F 1015.8 in NE 7.4 mph 7.4 mph 65 % 0.0 in
00:44 25.2 °F 18.2 °F 1015.8 in East 9.3 mph 9.3 mph 65 % 0.0 in
00:49 25.1 °F 18.3 °F 1015.8 in NE 5.6 mph 5.6 mph 66 % 0.0 in
00:50 25.1 °F 18.3 °F 1015.8 in ESE 6.1 mph 6.1 mph 66 % 0.0 in
00:55 24.9 °F 18.8 °F 1015.8 in East 13.0 mph 13.0 mph 69 % 0.0 in
01:00 24.8 °F 18.9 °F 1015.8 in East 11.1 mph 11.1 mph 70 % 0.0 in
01:05 24.8 °F 19.2 °F 1015.8 in East 7.4 mph 7.4 mph 71 % 0.0 in
01:10 24.7 °F 19.3 °F 1015.8 in ESE 7.4 mph 7.4 mph 72 % 0.0 in
01:15 24.7 °F 19.1 °F 1014.8 in East 7.4 mph 7.4 mph 71 % 0.0 in
01:20 24.7 °F 19.3 °F 1014.8 in NE 3.7 mph 3.7 mph 72 % 0.0 in
01:25 24.6 °F 19.4 °F 1014.8 in ESE 9.3 mph 9.3 mph 73 % 0.0 in
01:30 24.6 °F 19.4 °F 1014.8 in ESE 7.4 mph 7.4 mph 73 % 0.0 in
01:35 24.6 °F 19.4 °F 1014.8 in ENE 7.6 mph 7.6 mph 73 % 0.0 in
01:40 24.6 °F 19.4 °F 1014.8 in ENE 5.6 mph 5.6 mph 73 % 0.0 in
01:45 24.6 °F 19.2 °F 1015.8 in NNE 7.4 mph 7.4 mph 72 % 0.0 in
01:50 24.6 °F 19.4 °F 1015.8 in NE 7.4 mph 7.4 mph 73 % 0.0 in
01:55 24.6 °F 19.7 °F 1015.8 in ENE 7.9 mph 7.9 mph 74 % 0.0 in
02:00 24.5 °F 19.3 °F 1015.8 in NE 5.8 mph 5.8 mph 73 % 0.0 in
02:05 24.5 °F 19.6 °F 1015.8 in ENE 5.6 mph 5.6 mph 74 % 0.0 in
02:06 24.6 °F 19.7 °F 1015.8 in ENE 5.6 mph 5.6 mph 74 % 0.0 in
02:11 24.5 °F 19.6 °F 1015.8 in NNE 5.6 mph 5.6 mph 74 % 0.0 in
02:16 24.5 °F 19.3 °F 1015.8 in ESE 4.2 mph 4.2 mph 73 % 0.0 in
02:21 24.5 °F 19.6 °F 1015.8 in East 7.4 mph 7.4 mph 74 % 0.0 in
02:26 24.5 °F 19.6 °F 1015.8 in ESE 3.7 mph 3.7 mph 74 % 0.0 in
02:31 24.5 °F 19.3 °F 1014.8 in ENE 5.0 mph 5.0 mph 73 % 0.0 in
02:36 24.5 °F 19.6 °F 1014.8 in East 7.4 mph 7.4 mph 74 % 0.0 in
02:41 24.5 °F 19.6 °F 1014.8 in ENE 5.8 mph 5.8 mph 74 % 0.0 in
02:46 24.5 °F 19.3 °F 1015.8 in ENE 5.6 mph 5.6 mph 73 % 0.0 in
02:51 24.5 °F 19.3 °F 1015.8 in NE 3.7 mph 3.7 mph 73 % 0.0 in
02:56 24.5 °F 19.6 °F 1015.8 in ENE 3.7 mph 3.7 mph 74 % 0.0 in
03:01 24.5 °F 19.3 °F 1014.8 in ENE 4.7 mph 4.7 mph 73 % 0.0 in
03:06 24.5 °F 19.3 °F 1014.8 in NE 2.3 mph 3.2 mph 73 % 0.0 in
03:11 24.4 °F 19.2 °F 1014.8 in ESE 5.8 mph 5.8 mph 73 % 0.0 in
03:16 24.4 °F 19.4 °F 1014.8 in ESE 3.7 mph   74 % 0.0 in
03:21 24.4 °F 19.2 °F 1014.8 in SSE 3.7 mph 3.7 mph 73 % 0.0 in
03:26 24.4 °F 19.4 °F 1014.8 in WSW 3.7 mph 3.7 mph 74 % 0.0 in
03:31 24.4 °F 19.4 °F 1014.8 in WSW 1.9 mph 2.3 mph 74 % 0.0 in
03:36 24.4 °F 19.4 °F 1014.8 in SSE 2.6 mph   74 % 0.0 in
03:41 24.3 °F 19.4 °F 1014.8 in WSW 3.7 mph 3.7 mph 74 % 0.0 in
03:46 24.1 °F 18.9 °F 1014.8 in WSW 3.7 mph 3.7 mph 73 % 0.0 in
03:51 24.0 °F 18.7 °F 1014.8 in WSW 3.7 mph 3.7 mph 72 % 0.0 in
03:56 24.0 °F 18.4 °F 1014.8 in WSW 2.3 mph 2.3 mph 71 % 0.0 in
04:01 24.0 °F 18.4 °F 1014.8 in West 3.7 mph 3.7 mph 71 % 0.0 in
04:06 24.1 °F 18.7 °F 1014.8 in WSW 1.9 mph   72 % 0.0 in
04:11 24.1 °F 18.5 °F 1014.8 in WSW 3.7 mph 3.7 mph 71 % 0.0 in
04:16 24.1 °F 18.7 °F 1014.8 in West 1.9 mph   72 % 0.0 in
04:21 24.0 °F 18.8 °F 1014.8 in WSW 1.9 mph   73 % 0.0 in
04:26 24.0 °F 18.8 °F 1014.8 in Calm     73 % 0.0 in
04:31 23.9 °F 19.0 °F 1014.8 in Calm     74 % 0.0 in
04:36 23.8 °F 18.9 °F 1014.8 in Calm     74 % 0.0 in
04:41 23.8 °F 18.7 °F 1014.8 in Calm     73 % 0.0 in
04:42 23.8 °F 18.7 °F 1014.8 in Calm     73 % 0.0 in
04:47 23.7 °F 18.8 °F 1014.8 in Calm     74 % 0.0 in
04:52 23.7 °F 18.6 °F 1014.8 in SW 3.7 mph   73 % 0.0 in
04:57 23.6 °F 18.5 °F 1014.8 in South 3.7 mph 3.7 mph 73 % 0.0 in
05:02 23.6 °F 18.3 °F 1014.8 in SW 3.7 mph 3.7 mph 72 % 0.0 in
05:07 23.6 °F 18.1 °F 1014.8 in SSW 3.7 mph 3.7 mph 71 % 0.0 in
05:12 23.6 °F 18.3 °F 1014.8 in East 1.9 mph   72 % 0.0 in
05:17 23.4 °F 17.8 °F 1014.8 in WSW 4.2 mph 4.2 mph 71 % 0.0 in
05:20 23.3 °F 17.5 °F 1014.8 in WSW 3.7 mph 3.7 mph 70 % 0.0 in
05:21 23.3 °F 17.5 °F 1014.8 in WSW 3.7 mph 3.7 mph 70 % 0.0 in
05:23 23.3 °F 17.5 °F 1014.8 in WSW 3.7 mph 3.7 mph 70 % 0.0 in
05:26 23.3 °F 17.7 °F 1014.8 in Calm     71 % 0.0 in
05:31 23.3 °F 17.7 °F 1015.8 in WSW 1.9 mph   71 % 0.0 in
05:36 23.2 °F 17.7 °F 1015.8 in SW 1.9 mph 1.9 mph 71 % 0.0 in
05:41 23.2 °F 17.7 °F 1015.8 in SW 2.3 mph   71 % 0.0 in
05:46 23.3 °F 17.5 °F 1014.8 in WSW 2.6 mph 2.6 mph 70 % 0.0 in
05:51 23.3 °F 17.5 °F 1014.8 in WSW 3.7 mph 3.7 mph 70 % 0.0 in
05:56 23.3 °F 17.7 °F 1014.8 in SW 1.9 mph   71 % 0.0 in
06:01 23.3 °F 17.5 °F 1015.8 in WSW 3.7 mph 3.7 mph 70 % 0.0 in
06:06 23.3 °F 17.5 °F 1015.8 in West 3.9 mph 3.9 mph 70 % 0.0 in
06:11 23.4 °F 17.8 °F 1015.8 in Calm     71 % 0.0 in
06:16 23.4 °F 17.8 °F 1015.8 in Calm     71 % 0.0 in
06:21 23.4 °F 18.1 °F 1015.8 in Calm     72 % 0.0 in
06:26 23.4 °F 18.1 °F 1015.8 in Calm     72 % 0.0 in
06:31 23.4 °F 18.1 °F 1015.8 in WNW 1.9 mph   72 % 0.0 in
06:36 23.5 °F 18.2 °F 1015.8 in NW 3.7 mph 3.7 mph 72 % 0.0 in
06:41 23.5 °F 18.2 °F 1015.8 in WNW 3.7 mph 3.7 mph 72 % 0.0 in
06:46 23.5 °F 18.4 °F 1015.8 in NW 1.9 mph   73 % 0.0 in
06:51 23.4 °F 18.3 °F 1015.8 in Calm     73 % 0.0 in
06:56 23.4 °F 18.3 °F 1015.8 in Calm     73 % 0.0 in
07:01 23.3 °F 18.2 °F 1015.8 in Calm     73 % 0.0 in
07:06 23.2 °F 18.1 °F 1015.8 in SSE 3.7 mph 3.7 mph 73 % 0.0 in
07:11 23.0 °F 18.1 °F 1015.8 in SSE 9.3 mph 9.3 mph 74 % 0.0 in
07:16 22.8 °F 17.7 °F 1015.8 in South 3.7 mph   73 % 0.0 in
07:21 22.6 °F 17.5 °F 1015.8 in South 2.3 mph 2.3 mph 73 % 0.0 in
07:26 22.6 °F 17.3 °F 1015.8 in WSW 3.7 mph 3.7 mph 72 % 0.0 in
07:31 22.5 °F 17.2 °F 1015.8 in WSW 3.7 mph 3.7 mph 72 % 0.0 in
07:36 22.5 °F 17.2 °F 1015.8 in West 3.9 mph 3.9 mph 72 % 0.0 in
07:41 22.5 °F 17.2 °F 1015.8 in WSW 3.9 mph 3.9 mph 72 % 0.0 in
07:46 22.6 °F 17.3 °F 1015.8 in West 3.9 mph 3.9 mph 72 % 0.0 in
07:51 22.7 °F 17.4 °F 1015.8 in WSW 5.6 mph 5.6 mph 72 % 0.0 in
07:56 22.8 °F 17.7 °F 1015.8 in WNW 4.7 mph 4.7 mph 73 % 0.0 in
08:01 22.9 °F 17.8 °F 1015.8 in WNW 2.6 mph 2.6 mph 73 % 0.0 in
08:06 23.0 °F 17.7 °F 1015.8 in West 7.4 mph 7.4 mph 72 % 0.0 in
08:11 23.1 °F 18.0 °F 1015.8 in WSW 3.7 mph 3.7 mph 73 % 0.0 in
08:16 23.2 °F 18.1 °F 1015.8 in WNW 5.8 mph 5.8 mph 73 % 0.0 in
08:21 23.3 °F 18.2 °F 1015.8 in SW 3.7 mph 3.7 mph 73 % 0.0 in
08:26 23.6 °F 18.5 °F 1015.8 in SSW 3.7 mph 3.7 mph 73 % 0.0 in
08:31 23.7 °F 18.6 °F 1015.8 in SW 3.7 mph 3.7 mph 73 % 0.0 in
08:36 23.8 °F 18.4 °F 1015.8 in West 3.7 mph 3.7 mph 72 % 0.0 in
08:41 24.0 °F 18.4 °F 1015.8 in NNE 4.2 mph   71 % 0.0 in
08:46 23.8 °F 18.4 °F 1016.8 in NNW 6.9 mph 6.9 mph 72 % 0.0 in
08:51 23.5 °F 17.9 °F 1016.8 in NW 7.4 mph 7.4 mph 71 % 0.0 in
08:56 23.6 °F 17.8 °F 1016.8 in NE 7.4 mph 7.4 mph 70 % 0.0 in
09:01 23.4 °F 17.6 °F 1016.8 in NNE 3.7 mph 3.7 mph 70 % 0.0 in
09:06 23.2 °F 17.4 °F 1016.8 in NNW 6.1 mph 6.1 mph 70 % 0.0 in
09:12 23.1 °F 17.1 °F 1016.8 in ENE 7.4 mph 7.4 mph 69 % 0.0 in
09:17 23.1 °F 17.1 °F 1016.8 in ESE 5.6 mph 5.6 mph 69 % 0.0 in
09:22 23.0 °F 17.0 °F 1016.8 in NE 5.0 mph 5.0 mph 69 % 0.0 in
09:27 23.0 °F 17.0 °F 1016.8 in ENE 3.9 mph 3.9 mph 69 % 0.0 in
09:32 22.9 °F 16.9 °F 1016.8 in NNE 2.3 mph 2.3 mph 69 % 0.0 in
09:37 23.0 °F 17.0 °F 1016.8 in WNW 3.7 mph 3.7 mph 69 % 0.0 in
09:42 23.0 °F 17.0 °F 1016.8 in NNW 3.7 mph   69 % 0.0 in
09:47 23.1 °F 17.1 °F 1016.8 in NNW 3.7 mph 3.7 mph 69 % 0.0 in
09:52 23.1 °F 17.1 °F 1016.8 in NE 4.2 mph 4.2 mph 69 % 0.0 in
09:57 23.2 °F 16.9 °F 1016.8 in North 5.8 mph 5.8 mph 68 % 0.0 in
10:02 23.2 °F 16.9 °F 1016.8 in NNW 5.6 mph 5.6 mph 68 % 0.0 in
10:07 23.2 °F 16.9 °F 1016.8 in WNW 3.7 mph 3.7 mph 68 % 0.0 in
10:12 23.2 °F 16.9 °F 1016.8 in North 3.7 mph 3.7 mph 68 % 0.0 in
10:17 22.9 °F 17.1 °F 1017.8 in WNW 3.7 mph 3.7 mph 70 % 0.0 in
10:22 22.6 °F 17.1 °F 1017.8 in ENE 3.7 mph 3.7 mph 71 % 0.0 in
10:27 22.4 °F 17.1 °F 1017.8 in ENE 3.7 mph 3.7 mph 72 % 0.0 in
10:32 22.3 °F 17.2 °F 1017.8 in NNE 3.7 mph   73 % 0.0 in
10:37 22.3 °F 17.4 °F 1017.8 in NE 1.9 mph   74 % 0.0 in
10:42 22.3 °F 17.4 °F 1017.8 in NNE 3.7 mph 3.7 mph 74 % 0.0 in
10:47 22.4 °F 17.6 °F 1017.8 in NNE 3.7 mph 3.7 mph 74 % 0.0 in
10:52 22.5 °F 17.8 °F 1017.8 in NNE 4.2 mph 4.2 mph 75 % 0.0 in
10:57 22.5 °F 17.6 °F 1017.8 in North 5.6 mph 5.6 mph 74 % 0.0 in
11:02 22.8 °F 17.9 °F 1017.8 in ENE 5.6 mph 5.6 mph 74 % 0.0 in
11:07 22.8 °F 17.7 °F 1017.8 in NE 4.7 mph 4.7 mph 73 % 0.0 in
11:12 22.9 °F 17.8 °F 1017.8 in ENE 5.6 mph 5.6 mph 73 % 0.0 in
11:17 22.9 °F 17.6 °F 1017.8 in NNE 5.6 mph 5.6 mph 72 % 0.0 in
11:22 23.2 °F 17.9 °F 1017.8 in NNE 5.6 mph 5.6 mph 72 % 0.0 in
11:27 23.3 °F 17.7 °F 1017.8 in ENE 7.4 mph 7.4 mph 71 % 0.0 in
11:32 23.4 °F 17.6 °F 1017.8 in NE 7.4 mph 7.4 mph 70 % 0.0 in
11:37 23.4 °F 17.6 °F 1017.8 in NNE 5.6 mph 5.6 mph 70 % 0.0 in
11:42 23.5 °F 17.5 °F 1017.8 in WNW 1.9 mph   69 % 0.0 in
11:47 23.6 °F 18.1 °F 1017.8 in West 1.9 mph   71 % 0.0 in
11:52 23.5 °F 17.9 °F 1017.8 in ENE 3.7 mph 3.7 mph 71 % 0.0 in
11:57 23.5 °F 17.7 °F 1017.8 in East 1.9 mph   70 % 0.0 in
12:02 23.6 °F 17.6 °F 1017.8 in NNE 3.7 mph 3.7 mph 69 % 0.0 in
12:07 23.7 °F 17.7 °F 1017.8 in East 1.9 mph 1.9 mph 69 % 0.0 in
12:12 23.8 °F 17.8 °F 1017.8 in NE 3.2 mph 3.2 mph 69 % 0.0 in
12:17 23.9 °F 17.9 °F 1017.8 in ENE 4.7 mph 4.7 mph 69 % 0.0 in
12:22 23.9 °F 18.1 °F 1017.8 in ESE 3.7 mph 3.7 mph 70 % 0.0 in
12:27 24.2 °F 18.2 °F 1017.8 in ESE 4.7 mph 4.7 mph 69 % 0.0 in
12:32 24.7 °F 19.1 °F 1017.8 in East 6.4 mph 6.4 mph 71 % 0.0 in
12:37 25.0 °F 18.7 °F 1017.8 in SE 3.7 mph 3.7 mph 68 % 0.0 in
12:42 25.0 °F 18.7 °F 1016.8 in ESE 5.6 mph 5.6 mph 68 % 0.0 in
12:47 25.0 °F 18.4 °F 1016.8 in ENE 7.4 mph 7.4 mph 67 % 0.0 in
12:52 25.1 °F 18.6 °F 1016.8 in SE 7.4 mph 7.4 mph 67 % 0.0 in
12:57 25.0 °F 18.4 °F 1016.8 in East 7.4 mph 7.4 mph 67 % 0.0 in
13:02 25.2 °F 18.6 °F 1016.8 in SSW 7.4 mph 7.4 mph 67 % 0.0 in
13:07 25.7 °F 19.1 °F 1016.8 in SSE 5.0 mph 5.0 mph 67 % 0.0 in
13:12 25.3 °F 18.7 °F 1016.8 in SSE 9.3 mph 9.3 mph 67 % 0.0 in
13:17 25.4 °F 18.8 °F 1016.8 in East 7.4 mph 7.4 mph 67 % 0.0 in
13:22 25.4 °F 18.8 °F 1016.8 in ESE 9.3 mph 9.3 mph 67 % 0.0 in
13:27 25.2 °F 18.9 °F 1016.8 in ENE 7.4 mph 7.4 mph 68 % 0.0 in
13:32 25.3 °F 19.4 °F 1016.8 in East 11.1 mph 11.1 mph 70 % 0.0 in
13:37 25.2 °F 19.6 °F 1016.8 in ESE 13.0 mph 13.0 mph 71 % 0.0 in
13:42 25.2 °F 19.8 °F 1016.8 in ENE 7.4 mph 7.4 mph 72 % 0.0 in
13:47 25.1 °F 19.7 °F 1016.8 in ESE 10.0 mph 10.0 mph 72 % 0.0 in
13:52 25.1 °F 19.7 °F 1016.8 in ENE 7.4 mph 7.4 mph 72 % 0.0 in
13:57 25.3 °F 19.9 °F 1016.8 in East 7.4 mph 7.4 mph 72 % 0.0 in
14:02 25.4 °F 20.0 °F 1016.8 in ENE 5.6 mph 5.6 mph 72 % 0.0 in
14:07 25.3 °F 19.9 °F 1016.8 in ESE 5.6 mph 5.6 mph 72 % 0.0 in
14:12 25.6 °F 20.2 °F 1016.8 in East 3.7 mph 4.2 mph 72 % 0.0 in
14:17 25.9 °F 20.2 °F 1016.8 in NNE 7.4 mph 7.4 mph 71 % 0.0 in
14:22 25.9 °F 20.0 °F 1016.8 in ESE 5.6 mph 5.6 mph 70 % 0.0 in
14:27 26.2 °F 20.1 °F 1017.8 in SW 7.4 mph 7.4 mph 69 % 0.0 in
14:32 27.0 °F 20.1 °F 1017.8 in SSE 7.4 mph 7.4 mph 66 % 0.0 in
14:37 27.4 °F 20.0 °F 1017.8 in ESE 9.3 mph 9.3 mph 64 % 0.0 in
14:42 28.1 °F 20.1 °F 1016.8 in SSE 13.0 mph 13.0 mph 62 % 0.0 in
14:47 28.3 °F 19.8 °F 1016.8 in South 12.2 mph 12.2 mph 60 % 0.0 in
14:52 28.6 °F 20.1 °F 1016.8 in WSW 9.5 mph 9.5 mph 60 % 0.0 in
14:57 28.6 °F 19.8 °F 1015.8 in South 11.1 mph 11.1 mph 59 % 0.0 in
15:02 28.9 °F 19.5 °F 1015.8 in SSE 18.5 mph 18.5 mph 57 % 0.0 in
15:07 29.1 °F 19.4 °F 1015.8 in SSW 13.0 mph 13.0 mph 56 % 0.0 in
15:12 29.0 °F 19.1 °F 1015.8 in SSW 16.7 mph 16.7 mph 55 % 0.0 in
15:17 29.7 °F 19.7 °F 1015.8 in SW 16.9 mph 16.9 mph 55 % 0.0 in
15:22 29.9 °F 19.9 °F 1015.8 in SW 11.1 mph 11.1 mph 55 % 0.0 in
15:27 29.5 °F 18.9 °F 1015.8 in WNW 14.8 mph 14.8 mph 53 % 0.0 in
15:32 29.7 °F 19.1 °F 1015.8 in SW 13.0 mph 13.0 mph 53 % 0.0 in
15:37 29.8 °F 18.9 °F 1015.8 in WSW 7.4 mph 7.4 mph 52 % 0.0 in
15:42 30.0 °F 19.1 °F 1015.8 in SSW 13.0 mph 13.0 mph 52 % 0.0 in
15:47 29.8 °F 18.9 °F 1015.8 in SSW 13.0 mph 13.0 mph 52 % 0.0 in
15:52 29.5 °F 18.6 °F 1015.8 in SSW 9.3 mph 9.3 mph 52 % 0.0 in
15:57 29.5 °F 18.6 °F 1015.8 in SW 10.8 mph 10.8 mph 52 % 0.0 in
16:02 29.2 °F 18.3 °F 1015.8 in SW 9.3 mph 9.3 mph 52 % 0.0 in
16:07 29.4 °F 18.2 °F 1015.8 in South 13.0 mph 13.0 mph 51 % 0.0 in
16:12 29.5 °F 18.6 °F 1015.8 in South 7.4 mph 7.4 mph 52 % 0.0 in
16:17 29.7 °F 18.5 °F 1015.8 in WSW 10.3 mph 10.3 mph 51 % 0.0 in
16:22 29.5 °F 18.3 °F 1015.8 in South 18.5 mph 18.5 mph 51 % 0.0 in
16:27 29.7 °F 18.5 °F 1015.8 in South 9.3 mph 9.3 mph 51 % 0.0 in
16:32 29.4 °F 18.2 °F 1015.8 in SW 11.4 mph 11.4 mph 51 % 0.0 in
16:37 29.3 °F 18.1 °F 1015.8 in SSW 8.7 mph 8.7 mph 51 % 0.0 in
16:42 29.4 °F 18.2 °F 1015.8 in SSW 15.8 mph 15.8 mph 51 % 0.0 in
16:47 28.9 °F 18.1 °F 1015.8 in SSW 11.1 mph 11.1 mph 52 % 0.0 in
16:52 29.1 °F 17.9 °F 1015.8 in WNW 11.1 mph 11.1 mph 51 % 0.0 in
16:57 28.9 °F 18.1 °F 1015.8 in West 9.3 mph 9.3 mph 52 % 0.0 in
17:02 28.8 °F 17.9 °F 1015.8 in SW 20.4 mph 20.4 mph 52 % 0.0 in
17:07 29.2 °F 18.3 °F 1015.8 in SW 7.9 mph 7.9 mph 52 % 0.0 in
17:12 29.1 °F 18.2 °F 1015.8 in WSW 13.0 mph 13.0 mph 52 % 0.0 in
17:17 29.1 °F 18.2 °F 1015.8 in SSW 9.3 mph 9.3 mph 52 % 0.0 in
17:22 29.2 °F 18.3 °F 1015.8 in WSW 17.5 mph 17.5 mph 52 % 0.0 in
17:27 28.7 °F 18.2 °F 1015.8 in South 7.4 mph 7.4 mph 53 % 0.0 in
17:32 28.8 °F 18.3 °F 1015.8 in WSW 10.3 mph 10.3 mph 53 % 0.0 in
17:37 28.1 °F 17.9 °F 1015.8 in SSW 11.1 mph 11.1 mph 54 % 0.0 in
17:42 28.3 °F 18.1 °F 1015.8 in WSW 14.8 mph 14.8 mph 54 % 0.0 in
17:47 28.0 °F 17.8 °F 1015.8 in SW 18.5 mph 18.5 mph 54 % 0.0 in
17:52 28.1 °F 18.2 °F 1015.8 in South 9.7 mph 9.7 mph 55 % 0.0 in
17:57 28.0 °F 18.1 °F 1015.8 in SSW 13.0 mph 13.0 mph 55 % 0.0 in
18:02 28.1 °F 18.2 °F 1015.8 in SSE 5.6 mph 5.6 mph 55 % 0.0 in
18:07 28.0 °F 18.1 °F 1015.8 in SSE 13.0 mph 13.0 mph 55 % 0.0 in
18:12 27.9 °F 18.0 °F 1015.8 in SW 7.9 mph 7.9 mph 55 % 0.0 in
18:17 27.8 °F 17.9 °F 1015.8 in SW 7.4 mph 7.4 mph 55 % 0.0 in
18:22 27.7 °F 18.1 °F 1015.8 in SSW 11.1 mph 11.1 mph 56 % 0.0 in
18:27 27.7 °F 18.1 °F 1014.8 in WSW 7.4 mph 7.4 mph 56 % 0.0 in
18:32 27.5 °F 17.9 °F 1014.8 in SSE 13.0 mph 13.0 mph 56 % 0.0 in
18:37 27.5 °F 17.9 °F 1014.8 in West 11.1 mph 11.1 mph 56 % 0.0 in
18:42 27.5 °F 17.9 °F 1014.8 in WSW 9.3 mph 9.3 mph 56 % 0.0 in
18:47 27.3 °F 17.8 °F 1014.8 in SW 11.1 mph 11.1 mph 56 % 0.0 in
18:52 27.2 °F 17.9 °F 1014.8 in SSW 5.6 mph 5.6 mph 57 % 0.0 in
18:57 27.1 °F 17.8 °F 1015.8 in South 8.7 mph 8.7 mph 57 % 0.0 in
19:02 27.0 °F 17.8 °F 1015.8 in SSW 9.3 mph 9.3 mph 57 % 0.0 in
19:07 26.8 °F 17.8 °F 1015.8 in SSE 7.4 mph 7.4 mph 58 % 0.0 in
19:12 26.6 °F 17.9 °F 1015.8 in SW 13.0 mph 13.0 mph 59 % 0.0 in
19:17 26.3 °F 17.7 °F 1015.8 in SSW 7.4 mph 7.4 mph 59 % 0.0 in
19:22 26.1 °F 17.7 °F 1015.8 in SW 14.8 mph 14.8 mph 60 % 0.0 in
19:27 26.1 °F 17.7 °F 1014.8 in SW 7.4 mph 7.4 mph 60 % 0.0 in
19:32 25.9 °F 17.8 °F 1014.8 in SW 7.4 mph 7.4 mph 61 % 0.0 in
19:37 25.6 °F 17.5 °F 1014.8 in WSW 13.0 mph 13.0 mph 61 % 0.0 in
19:42 25.3 °F 17.5 °F 1015.8 in South 9.3 mph 9.3 mph 62 % 0.0 in
19:47 25.3 °F 17.5 °F 1015.8 in SSE 8.7 mph 8.7 mph 62 % 0.0 in
19:52 25.2 °F 17.4 °F 1015.8 in SSW 11.9 mph 11.9 mph 62 % 0.0 in
19:57 25.0 °F 17.4 °F 1015.8 in WSW 11.1 mph 11.1 mph 63 % 0.0 in
20:02 25.0 °F 17.4 °F 1015.8 in West 7.4 mph 7.4 mph 63 % 0.0 in
20:03 24.9 °F 17.6 °F 1015.8 in SSW 9.3 mph 9.3 mph 64 % 0.0 in
20:09 24.8 °F 17.5 °F 1015.8 in SW 9.3 mph 9.3 mph 64 % 0.0 in
20:13 24.7 °F 17.7 °F 1015.8 in SE 7.4 mph 7.4 mph 65 % 0.0 in
20:18 24.6 °F 17.6 °F 1015.8 in South 9.3 mph 9.3 mph 65 % 0.0 in
20:23 24.5 °F 17.5 °F 1015.8 in SE 1.9 mph 1.9 mph 65 % 0.0 in
20:28 24.5 °F 17.5 °F 1016.8 in SW 9.5 mph 9.5 mph 65 % 0.0 in
20:33 24.4 °F 17.6 °F 1016.8 in WSW 3.9 mph 3.9 mph 66 % 0.0 in
20:38 24.3 °F 17.6 °F 1016.8 in SW 9.3 mph 9.3 mph 66 % 0.0 in
20:43 24.3 °F 17.6 °F 1017.8 in SW 11.1 mph 11.1 mph 66 % 0.0 in
20:48 24.2 °F 17.7 °F 1017.8 in SW 7.4 mph 7.4 mph 67 % 0.0 in
20:53 24.1 °F 17.3 °F 1017.8 in South 7.4 mph 7.4 mph 66 % 0.0 in
20:58 24.2 °F 17.7 °F 1017.8 in SW 3.7 mph   67 % 0.0 in
21:03 24.2 °F 17.7 °F 1017.8 in SW 3.7 mph 3.7 mph 67 % 0.0 in
21:08 24.2 °F 17.7 °F 1017.8 in SW 5.0 mph 5.0 mph 67 % 0.0 in
21:13 24.1 °F 17.6 °F 1017.8 in SW 7.4 mph 7.4 mph 67 % 0.0 in
21:18 24.0 °F 17.5 °F 1017.8 in SW 5.3 mph 5.3 mph 67 % 0.0 in
21:23 24.0 °F 17.5 °F 1017.8 in South 5.6 mph 5.6 mph 67 % 0.0 in
21:28 23.9 °F 17.6 °F 1017.8 in SSW 3.9 mph 3.9 mph 68 % 0.0 in
21:33 23.9 °F 17.6 °F 1017.8 in SW 7.4 mph 7.4 mph 68 % 0.0 in
21:38 23.8 °F 17.8 °F 1017.8 in SW 1.4 mph 1.4 mph 69 % 0.0 in
21:43 23.8 °F 17.8 °F 1016.8 in WSW 5.0 mph 5.0 mph 69 % 0.0 in
21:48 23.8 °F 17.8 °F 1016.8 in SW 7.4 mph 7.4 mph 69 % 0.0 in
21:53 23.7 °F 17.7 °F 1016.8 in SW 3.7 mph 3.7 mph 69 % 0.0 in
21:58 23.7 °F 17.7 °F 1017.8 in SW 3.7 mph 3.7 mph 69 % 0.0 in
22:03 23.7 °F 17.7 °F 1017.8 in WSW 7.4 mph 7.4 mph 69 % 0.0 in
22:08 23.7 °F 17.7 °F 1017.8 in SW 5.6 mph 5.6 mph 69 % 0.0 in
22:13 23.6 °F 17.6 °F 1017.8 in WSW 5.6 mph 5.6 mph 69 % 0.0 in
22:18 23.6 °F 17.6 °F 1017.8 in SW 5.0 mph 5.0 mph 69 % 0.0 in
22:23 23.6 °F 17.8 °F 1017.8 in SW 4.2 mph 4.2 mph 70 % 0.0 in
22:28 23.6 °F 17.8 °F 1017.8 in SW 3.9 mph 3.9 mph 70 % 0.0 in
22:33 23.5 °F 17.7 °F 1017.8 in SW 3.7 mph 3.7 mph 70 % 0.0 in
22:39 23.5 °F 17.7 °F 1017.8 in WSW 3.7 mph 3.7 mph 70 % 0.0 in
22:43 23.4 °F 17.6 °F 1018.8 in WSW 3.7 mph 3.7 mph 70 % 0.0 in
22:48 23.4 °F 17.6 °F 1018.8 in WSW 3.7 mph 3.7 mph 70 % 0.0 in
22:53 23.4 °F 17.8 °F 1018.8 in SW 3.7 mph 3.7 mph 71 % 0.0 in
22:58 23.4 °F 17.8 °F 1017.8 in SW 3.7 mph 3.7 mph 71 % 0.0 in
23:03 23.3 °F 17.7 °F 1017.8 in SW 3.7 mph 3.7 mph 71 % 0.0 in
23:08 23.3 °F 17.7 °F 1017.8 in WSW 3.7 mph 3.7 mph 71 % 0.0 in
23:13 23.3 °F 17.7 °F 1018.8 in SW 3.5 mph   71 % 0.0 in
23:18 23.2 °F 17.7 °F 1018.8 in SW 3.7 mph 3.7 mph 71 % 0.0 in
23:23 23.2 °F 17.7 °F 1018.8 in SW 3.9 mph 4.2 mph 71 % 0.0 in
23:28 23.1 °F 17.6 °F 1017.8 in WSW 3.9 mph 3.9 mph 71 % 0.0 in
23:33 23.0 °F 17.7 °F 1017.8 in WSW 3.7 mph 3.7 mph 72 % 0.0 in
23:38 23.0 °F 17.7 °F 1017.8 in SW 3.7 mph 3.7 mph 72 % 0.0 in
23:43 22.9 °F 17.6 °F 1017.8 in WSW 3.7 mph 3.7 mph 72 % 0.0 in
23:48 22.9 °F 17.6 °F 1017.8 in WSW 3.7 mph 3.7 mph 72 % 0.0 in
23:53 22.9 °F 17.6 °F 1017.8 in West 3.7 mph 3.7 mph 72 % 0.0 in
23:58 22.9 °F 17.8 °F 1018.8 in SW 3.7 mph 3.7 mph 73 % 0.0 in
Meteo Sesrovires
Elogis d' Weather Underground - 1.75 mb

Guio original per  Jim McMurry - jmcmurry@mwt.net Adaptat per a la plantilla per  Wim van der Kuil - Leuven-Template.eu

Trobareu la nostra informacio del temps tambe a:

Weather Underground

AWEKAS